Accueil
METAR-TAF:

METAR-TAF

Aéroports :

Kütahya, Turquie

latitude: 39-06-41N, longitude: 30-07-48E, altitude: 1013 m

Observation

Le bulletin a été fait il y a 41 minutes, à 22:50 UTC
Vent 3 kt de nord, variant entre nord/nord-ouest et est/nord-est
Température 13°C
Humidité 100%
Pression 1017 hPa
Visibilité: 0300 m
brouillard

METAR: LTBZ 212250Z 35003KT 330V070 0300 R31/0450U R13/0350U FG VV001 13/13 Q1017

Heure: 02:31 (23:31 UTC)

Prévision

Le bulletin a été fait il y a 3 heures et 51 minutes, à 19:40 UTC
Prévision valable du 21 à 21 UTC au 22 à 06 UTC
Vent 2 kt de direction variable
Visibilité 10 km ou plus
Nuages épars à une hauteur de 4000 ft

TAF: LTBZ 211940Z 2121/2206 VRB02KT 9999 SCT040

Observations et prévisions météorologiques de plus de 4000 aéroports (messages METAR et TAF).

Les stations disponibles sont représentées par des disques jaunes et rouges sur la carte.

Passer la souris dessus pour voir le nom de la station.

Cliquer dessus pour voir les observations et prévisions météorologiques.

Pour changer de carte: cliquez sur les boutons verts avec une croix noire pour zoomer, sur le bouton vert avec un tiret pour effectuer un zoom arrière, ou sur les flèches vertes pour les cartes adjacentes.


METAR-TAF: